Pagrindinis puslapis
METAR-TAF:

METAR-TAF

Oro uostai :

Red Dog Mine, Aliaska, Jungtinės Amerikos Valstijos

platuma: 68-01-56N, ilguma: 162-53-57W, Aukštis: 295 m

Dabartinis oras

Ataskaita buvo paskelbta 59 minutes, ne 17:48 UTC
Vėjas 6 kt iš Šiaurės/Šiaurės Rytų
Temperatūra -21°C
Drėgmė 48%
Slėgis 1011 hPa
Matomumas: 16.1 km
Mažai debesys ne aukštis 12000 ft

METAR: PADG 161748Z 03006KT 10SM FEW120 M21/M29 A2985

Laikas: 09:47 (18:47 UTC)


TAF: trūkstamas

Orai ataskaitas ir orų prognozės (METAR, TAF).

turimą stotys yra geltonos ir raudonos taškus žemėlapyje.

Perkelti pele per norėdami pamatyti stoties vardą.

Tada spustelėkite, norėdami matyti oro stebėjimo ir prognozės.

Norėdami pakeisti žemėlapį: spustelėkite ant žalios mygtukų su juodo kryžiaus žemyn,; žalią mygtuką su brūkšneliu, jei norite nutolinti; arba žalių rodyklių gretimoms žemėlapius.


METAR-TAF: